Time;durP1;ratioP1;P1;durP2;ratioP2;P2;SDS_P1;SDS_P2;PMS_P1;PMS_P2;Temp;Humidity;BMP_temperature;BMP_pressure;BME280_temperature;BME280_humidity;BME280_pressure;Samples;Min_cycle;Max_cycle;Signal;HPM_P1;HPM_P2
2022/08/17 00:00:59;;;;;;;0.03;0.03;;;;;;;;;;5008875;28;20042;-88
2022/08/17 00:03:33;;;;;;;0.00;0.00;;;;;;;;;;5005298;28;20042;-88
2022/08/17 00:06:15;;;;;;;0.03;0.03;;;;;;;;;;4998618;28;20052;-88
2022/08/17 00:08:43;;;;;;;0.10;0.10;;;;;;;;;;4996230;28;20038;-88
2022/08/17 00:11:13;;;;;;;0.20;0.20;;;;;;;;;;4988947;28;20050;-89
2022/08/17 00:13:42;;;;;;;0.00;0.00;;;;;;;;;;5004747;28;20528;-88
2022/08/17 00:16:10;;;;;;;0.10;0.10;;;;;;;;;;5016440;28;20038;-88
2022/08/17 00:18:38;;;;;;;0.25;0.25;;;;;;;;;;4998945;28;20484;-89
2022/08/17 00:21:05;;;;;;;0.05;0.05;;;;;;;;;;5020214;28;20042;-89
2022/08/17 00:23:31;;;;;;;0.10;0.10;;;;;;;;;;5000841;28;20399;-88
2022/08/17 00:25:57;;;;;;;0.10;0.10;;;;;;;;;;5000085;28;20042;-88
2022/08/17 00:28:24;;;;;;;0.00;0.00;;;;;;;;;;4998440;28;20088;-88
2022/08/17 00:30:50;;;;;;;0.03;0.03;;;;;;;;;;4997222;28;20073;-88
2022/08/17 00:33:22;;;;;;;0.00;0.00;;;;;;;;;;5000624;28;20049;-88
2022/08/17 00:35:50;;;;;;;0.10;0.10;;;;;;;;;;4999944;28;20026;-88
2022/08/17 00:38:16;;;;;;;0.57;0.40;;;;;;;;;;5000474;28;20398;-88
2022/08/17 00:40:53;;;;;;;0.20;0.20;;;;;;;;;;4999542;28;20132;-87
2022/08/17 00:43:27;;;;;;;0.10;0.10;;;;;;;;;;5015937;28;20034;-88
2022/08/17 00:45:54;;;;;;;0.10;0.10;;;;;;;;;;4999007;28;20140;-89
2022/08/17 00:48:20;;;;;;;0.10;0.10;;;;;;;;;;4998741;28;20030;-89
2022/08/17 00:51:10;;;;;;;0.00;0.00;;;;;;;;;;5000150;28;20041;-89
2022/08/17 00:53:37;;;;;;;0.10;0.10;;;;;;;;;;4971585;28;20046;-89
2022/08/17 00:56:05;;;;;;;0.00;0.00;;;;;;;;;;4999070;28;20100;-89
2022/08/17 00:58:32;;;;;;;0.10;0.10;;;;;;;;;;5000488;28;20046;-89
2022/08/17 01:01:00;;;;;;;0.10;0.10;;;;;;;;;;5000006;28;20096;-89
2022/08/17 01:03:27;;;;;;;0.20;0.20;;;;;;;;;;4999473;28;20091;-89
2022/08/17 01:05:56;;;;;;;0.00;0.00;;;;;;;;;;4999670;28;20576;-89
2022/08/17 01:08:23;;;;;;;0.00;0.00;;;;;;;;;;4998746;28;20037;-89
2022/08/17 01:10:52;;;;;;;0.03;0.03;;;;;;;;;;4985602;28;20061;-89
2022/08/17 01:13:18;;;;;;;0.00;0.00;;;;;;;;;;4999359;28;20479;-88
2022/08/17 01:15:51;;;;;;;0.10;0.10;;;;;;;;;;4998768;28;20038;-89
2022/08/17 01:18:18;;;;;;;0.10;0.10;;;;;;;;;;4987479;28;20411;-89
2022/08/17 01:20:46;;;;;;;2.72;1.75;;;;;;;;;;4999582;28;20755;-88
2022/08/17 01:23:13;;;;;;;0.00;0.00;;;;;;;;;;4999190;28;20403;-88
2022/08/17 01:25:40;;;;;;;0.00;0.00;;;;;;;;;;4999144;28;20403;-88
2022/08/17 01:28:06;;;;;;;0.00;0.00;;;;;;;;;;4991210;28;20038;-89
2022/08/17 01:30:32;;;;;;;0.05;0.05;;;;;;;;;;4998881;28;20041;-88
2022/08/17 01:32:58;;;;;;;0.10;0.10;;;;;;;;;;4998871;28;20033;-87
2022/08/17 01:35:24;;;;;;;0.10;0.10;;;;;;;;;;4995039;28;20811;-88
2022/08/17 01:37:50;;;;;;;0.08;0.08;;;;;;;;;;4988523;28;20042;-87
2022/08/17 01:40:26;;;;;;;0.00;0.00;;;;;;;;;;4995500;28;20052;-88
2022/08/17 01:42:55;;;;;;;0.10;0.10;;;;;;;;;;5008608;28;20506;-88
2022/08/17 01:45:23;;;;;;;0.00;0.00;;;;;;;;;;4991834;28;20088;-89
2022/08/17 01:47:50;;;;;;;0.22;0.22;;;;;;;;;;4998537;28;20038;-87
2022/08/17 01:50:19;;;;;;;4.68;4.25;;;;;;;;;;4998394;28;20415;-87
2022/08/17 01:52:46;;;;;;;0.13;0.13;;;;;;;;;;4991459;28;20046;-87
2022/08/17 01:55:15;;;;;;;0.10;0.10;;;;;;;;;;5006601;28;20042;-87
2022/08/17 01:57:44;;;;;;;0.10;0.10;;;;;;;;;;4998212;28;20042;-87
2022/08/17 02:00:10;;;;;;;0.10;0.10;;;;;;;;;;4997887;28;20042;-89
2022/08/17 02:02:36;;;;;;;0.05;0.05;;;;;;;;;;4997935;28;20038;-88
2022/08/17 02:05:03;;;;;;;0.10;0.10;;;;;;;;;;4998483;28;20491;-88
2022/08/17 02:07:29;;;;;;;0.10;0.10;;;;;;;;;;4998208;28;20781;-87
2022/08/17 02:09:55;;;;;;;0.00;0.00;;;;;;;;;;4982030;28;20073;-87
2022/08/17 02:12:21;;;;;;;0.00;0.00;;;;;;;;;;4998316;28;20037;-87
2022/08/17 02:14:48;;;;;;;0.10;0.10;;;;;;;;;;4998703;28;20057;-87
2022/08/17 02:17:14;;;;;;;0.10;0.10;;;;;;;;;;4998828;28;20033;-87
2022/08/17 02:19:40;;;;;;;0.00;0.00;;;;;;;;;;5001065;28;20491;-88
2022/08/17 02:22:06;;;;;;;0.17;0.17;;;;;;;;;;5001508;28;20053;-87
2022/08/17 02:24:35;;;;;;;0.03;0.03;;;;;;;;;;5001026;28;20532;-87
2022/08/17 02:27:02;;;;;;;0.00;0.00;;;;;;;;;;4998133;28;20176;-88
2022/08/17 02:29:28;;;;;;;0.85;0.85;;;;;;;;;;4996263;28;20039;-86
2022/08/17 02:31:57;;;;;;;0.00;0.00;;;;;;;;;;5001826;28;20383;-87
2022/08/17 02:34:23;;;;;;;0.10;0.10;;;;;;;;;;5001320;28;20129;-87
2022/08/17 02:36:49;;;;;;;0.10;0.10;;;;;;;;;;5018437;28;20046;-87
2022/08/17 02:39:16;;;;;;;0.10;0.10;;;;;;;;;;5002464;28;20049;-87
2022/08/17 02:41:43;;;;;;;0.05;0.05;;;;;;;;;;5001620;28;20041;-87
2022/08/17 02:44:10;;;;;;;0.08;0.08;;;;;;;;;;5001429;28;20106;-87
2022/08/17 02:46:36;;;;;;;0.10;0.10;;;;;;;;;;4989778;28;20045;-87
2022/08/17 02:49:03;;;;;;;0.00;0.00;;;;;;;;;;4997227;28;20459;-87
2022/08/17 02:51:29;;;;;;;0.10;0.10;;;;;;;;;;4995578;28;20073;-88
2022/08/17 02:53:55;;;;;;;0.08;0.08;;;;;;;;;;5015516;28;20042;-88
2022/08/17 02:56:21;;;;;;;0.10;0.10;;;;;;;;;;5000732;28;20042;-88
2022/08/17 02:58:48;;;;;;;0.00;0.00;;;;;;;;;;5001306;28;20056;-87
2022/08/17 03:01:14;;;;;;;0.10;0.10;;;;;;;;;;4993439;28;20042;-87
2022/08/17 03:03:40;;;;;;;0.10;0.10;;;;;;;;;;4999863;28;20136;-86
2022/08/17 03:06:06;;;;;;;0.10;0.10;;;;;;;;;;5001608;28;20041;-87
2022/08/17 03:08:34;;;;;;;0.15;0.15;;;;;;;;;;4992319;28;20050;-87
2022/08/17 03:11:00;;;;;;;0.05;0.05;;;;;;;;;;5014418;28;20475;-87
2022/08/17 03:13:26;;;;;;;0.10;0.10;;;;;;;;;;4995631;28;20077;-88
2022/08/17 03:15:52;;;;;;;0.10;0.10;;;;;;;;;;5000916;28;20092;-88
2022/08/17 03:18:19;;;;;;;0.10;0.10;;;;;;;;;;5001472;28;20050;-88
2022/08/17 03:20:46;;;;;;;0.22;0.22;;;;;;;;;;5001027;28;20415;-87
2022/08/17 03:23:12;;;;;;;0.10;0.10;;;;;;;;;;5001090;28;20056;-88
2022/08/17 03:25:41;;;;;;;0.00;0.00;;;;;;;;;;4997035;28;20053;-87
2022/08/17 03:28:09;;;;;;;0.20;0.20;;;;;;;;;;4998375;28;20115;-88
2022/08/17 03:30:35;;;;;;;0.00;0.00;;;;;;;;;;5000638;28;20177;-88
2022/08/17 03:33:03;;;;;;;0.10;0.10;;;;;;;;;;5001012;28;20038;-87
2022/08/17 03:35:32;;;;;;;0.00;0.00;;;;;;;;;;4983810;28;20103;-87
2022/08/17 03:37:59;;;;;;;0.10;0.10;;;;;;;;;;4998667;28;20524;-87
2022/08/17 03:40:25;;;;;;;0.00;0.00;;;;;;;;;;5000654;28;20045;-87
2022/08/17 03:42:53;;;;;;;0.10;0.10;;;;;;;;;;5000328;28;20037;-86
2022/08/17 03:56:41;;;;;;;0.03;0.03;;;;;;;;;;4983583;28;20495;-86
2022/08/17 03:56:42;;;;;;;0.10;0.10;;;;;;;;;;5017300;28;20459;-87
2022/08/17 03:59:28;;;;;;;0.03;0.03;;;;;;;;;;5000879;28;20385;-87
2022/08/17 04:01:55;;;;;;;0.08;0.08;;;;;;;;;;5016792;28;20049;-87
2022/08/17 04:04:22;;;;;;;0.00;0.00;;;;;;;;;;4985933;28;20037;-87
2022/08/17 04:06:49;;;;;;;0.10;0.10;;;;;;;;;;5000317;28;20037;-87
2022/08/17 04:09:15;;;;;;;0.00;0.00;;;;;;;;;;5020115;28;20091;-87
2022/08/17 04:11:41;;;;;;;0.00;0.00;;;;;;;;;;5000727;28;20086;-86
2022/08/17 04:14:07;;;;;;;0.00;0.00;;;;;;;;;;4999533;28;20038;-86
2022/08/17 04:16:34;;;;;;;0.10;0.10;;;;;;;;;;4999432;28;20065;-86
2022/08/17 04:19:00;;;;;;;0.00;0.00;;;;;;;;;;4999522;28;20096;-86
2022/08/17 04:21:27;;;;;;;0.10;0.10;;;;;;;;;;5010617;28;20050;-87
2022/08/17 04:23:53;;;;;;;0.10;0.10;;;;;;;;;;5002571;28;20042;-87
2022/08/17 04:26:19;;;;;;;0.10;0.10;;;;;;;;;;4997638;28;20034;-87
2022/08/17 04:28:45;;;;;;;0.20;0.20;;;;;;;;;;4995469;28;20505;-87
2022/08/17 04:31:12;;;;;;;0.10;0.10;;;;;;;;;;4999266;28;20042;-87
2022/08/17 04:33:38;;;;;;;0.10;0.10;;;;;;;;;;5007035;28;20037;-87
2022/08/17 04:36:07;;;;;;;0.10;0.10;;;;;;;;;;5014968;28;20530;-88
2022/08/17 04:38:38;;;;;;;0.10;0.10;;;;;;;;;;5015853;28;20068;-87
2022/08/17 04:43:53;;;;;;;0.10;0.10;;;;;;;;;;5015056;28;20048;-87
2022/08/17 04:46:21;;;;;;;0.10;0.10;;;;;;;;;;4998760;28;20637;-87
2022/08/17 04:48:48;;;;;;;0.10;0.10;;;;;;;;;;4998797;28;20472;-87
2022/08/17 04:51:16;;;;;;;0.10;0.10;;;;;;;;;;5015565;28;20509;-87
2022/08/17 04:53:44;;;;;;;0.20;0.20;;;;;;;;;;4998763;28;20048;-87
2022/08/17 04:56:10;;;;;;;0.10;0.10;;;;;;;;;;5015573;28;20038;-87
2022/08/17 04:58:37;;;;;;;0.00;0.00;;;;;;;;;;4998799;28;20045;-87
2022/08/17 05:01:04;;;;;;;0.10;0.10;;;;;;;;;;4999162;28;20044;-86
2022/08/17 05:03:31;;;;;;;0.00;0.00;;;;;;;;;;4999314;28;20099;-86
2022/08/17 05:05:57;;;;;;;0.10;0.10;;;;;;;;;;4998091;28;20077;-86
2022/08/17 05:08:23;;;;;;;0.10;0.10;;;;;;;;;;4998655;28;20030;-88
2022/08/17 05:10:49;;;;;;;0.08;0.08;;;;;;;;;;4998547;28;20042;-88
2022/08/17 05:13:20;;;;;;;0.20;0.20;;;;;;;;;;4999329;28;20034;-87
2022/08/17 05:15:47;;;;;;;0.00;0.00;;;;;;;;;;4998649;28;20038;-87
2022/08/17 05:18:13;;;;;;;0.10;0.10;;;;;;;;;;5015974;28;20466;-87
2022/08/17 05:20:40;;;;;;;0.08;0.08;;;;;;;;;;5004152;28;20038;-89
2022/08/17 05:23:11;;;;;;;0.10;0.10;;;;;;;;;;4996499;28;20496;-87
2022/08/17 05:25:41;;;;;;;0.20;0.20;;;;;;;;;;4986819;28;20043;-87
2022/08/17 05:28:08;;;;;;;0.10;0.10;;;;;;;;;;4997747;28;20095;-87
2022/08/17 05:30:34;;;;;;;0.10;0.10;;;;;;;;;;4994374;28;20044;-87
2022/08/17 05:33:03;;;;;;;0.00;0.00;;;;;;;;;;4998812;28;20046;-87
2022/08/17 05:35:30;;;;;;;0.10;0.10;;;;;;;;;;4997459;28;20037;-88
2022/08/17 05:37:56;;;;;;;0.10;0.10;;;;;;;;;;4998148;28;20048;-87
2022/08/17 05:40:23;;;;;;;0.10;0.10;;;;;;;;;;5014269;28;20412;-88
2022/08/17 05:42:49;;;;;;;0.10;0.10;;;;;;;;;;4997973;28;20049;-87
2022/08/17 05:45:16;;;;;;;0.00;0.00;;;;;;;;;;5006190;28;20125;-87
2022/08/17 05:47:43;;;;;;;0.10;0.10;;;;;;;;;;4997577;28;20046;-87
2022/08/17 05:50:11;;;;;;;0.10;0.10;;;;;;;;;;4983828;28;20050;-87
2022/08/17 05:52:37;;;;;;;0.10;0.10;;;;;;;;;;4984368;28;20109;-88
2022/08/17 05:55:13;;;;;;;0.10;0.10;;;;;;;;;;4998328;28;20076;-87
2022/08/17 05:57:47;;;;;;;0.47;0.47;;;;;;;;;;4998688;28;20133;-88
2022/08/17 06:00:23;;;;;;;0.10;0.10;;;;;;;;;;4991110;28;20446;-85
2022/08/17 06:03:08;;;;;;;0.10;0.10;;;;;;;;;;4998579;28;20402;-88
2022/08/17 06:08:51;;;;;;;0.15;0.15;;;;;;;;;;5018022;28;20128;-84
2022/08/17 06:11:17;;;;;;;0.00;0.00;;;;;;;;;;4996768;28;20044;-85
2022/08/17 06:13:59;;;;;;;0.00;0.00;;;;;;;;;;4994935;28;20407;-84
2022/08/17 06:16:27;;;;;;;0.10;0.10;;;;;;;;;;5009336;28;20463;-84
2022/08/17 06:19:09;;;;;;;0.00;0.00;;;;;;;;;;4998022;28;20053;-84
2022/08/17 06:21:39;;;;;;;0.00;0.00;;;;;;;;;;4997397;28;20053;-85
2022/08/17 06:24:06;;;;;;;0.05;0.05;;;;;;;;;;5013154;28;20125;-86
2022/08/17 06:26:35;;;;;;;0.05;0.05;;;;;;;;;;4996203;28;20041;-86
2022/08/17 06:29:19;;;;;;;0.10;0.10;;;;;;;;;;4998128;28;20037;-85
2022/08/17 06:31:45;;;;;;;0.10;0.10;;;;;;;;;;4996903;28;20053;-86
2022/08/17 06:34:11;;;;;;;0.00;0.00;;;;;;;;;;4999412;28;20061;-87
2022/08/17 06:37:07;;;;;;;0.00;0.00;;;;;;;;;;4997578;28;20487;-88
2022/08/17 06:39:47;;;;;;;0.00;0.00;;;;;;;;;;4961892;28;20134;-86
2022/08/17 06:42:13;;;;;;;0.10;0.10;;;;;;;;;;4983255;28;20042;-87
2022/08/17 06:44:49;;;;;;;0.03;0.03;;;;;;;;;;4997715;28;20042;-88
2022/08/17 06:47:24;;;;;;;0.10;0.10;;;;;;;;;;4995439;28;20037;-87
2022/08/17 06:49:55;;;;;;;0.20;0.20;;;;;;;;;;4998805;28;20120;-89
2022/08/17 06:52:40;;;;;;;0.13;0.13;;;;;;;;;;5015152;28;20121;-89
2022/08/17 06:55:16;;;;;;;0.10;0.10;;;;;;;;;;4998068;28;20034;-87
2022/08/17 06:57:45;;;;;;;0.10;0.10;;;;;;;;;;4998354;28;20491;-86
2022/08/17 07:00:13;;;;;;;0.00;0.00;;;;;;;;;;4998717;28;20038;-86
2022/08/17 07:02:58;;;;;;;0.20;0.20;;;;;;;;;;5015151;28;20068;-87
2022/08/17 07:05:24;;;;;;;;;;;;;;;;;;5029010;28;20396;-87
2022/08/17 07:08:05;;;;;;;0.10;0.10;;;;;;;;;;5000300;28;19964;-87
2022/08/17 07:10:44;;;;;;;0.00;0.00;;;;;;;;;;5002229;28;20073;-89
2022/08/17 07:13:17;;;;;;;0.13;0.13;;;;;;;;;;5003161;28;20045;-88
2022/08/17 07:15:45;;;;;;;0.10;0.10;;;;;;;;;;4999889;28;20057;-88
2022/08/17 07:18:11;;;;;;;0.00;0.00;;;;;;;;;;5010030;28;20038;-91
2022/08/17 07:20:41;;;;;;;0.10;0.10;;;;;;;;;;5011010;28;20049;-87
2022/08/17 07:23:18;;;;;;;0.00;0.00;;;;;;;;;;5001515;28;20046;-92
2022/08/17 07:25:44;;;;;;;0.00;0.00;;;;;;;;;;5001510;28;20099;-89
2022/08/17 07:28:11;;;;;;;0.00;0.00;;;;;;;;;;5004989;28;20065;-87
2022/08/17 07:30:45;;;;;;;0.10;0.10;;;;;;;;;;5000350;28;20113;-86
2022/08/17 07:33:13;;;;;;;0.03;0.03;;;;;;;;;;5000870;28;20065;-87
2022/08/17 07:35:40;;;;;;;0.05;0.05;;;;;;;;;;5000527;28;20033;-85
2022/08/17 07:38:09;;;;;;;0.10;0.10;;;;;;;;;;5018337;28;20050;-85
2022/08/17 07:40:35;;;;;;;0.00;0.00;;;;;;;;;;5015975;28;20127;-85
2022/08/17 07:43:14;;;;;;;0.03;0.03;;;;;;;;;;4991549;28;20042;-86
2022/08/17 07:48:45;;;;;;;0.10;0.10;;;;;;;;;;5010560;28;20484;-88
2022/08/17 07:51:37;;;;;;;0.20;0.20;;;;;;;;;;5012294;28;20068;-90
2022/08/17 07:54:23;;;;;;;0.08;0.08;;;;;;;;;;5009024;28;20612;-88
2022/08/17 07:56:49;;;;;;;0.00;0.00;;;;;;;;;;4999127;28;20088;-88
2022/08/17 07:59:36;;;;;;;0.52;0.52;;;;;;;;;;5022226;28;20884;-88
2022/08/17 08:02:21;;;;;;;0.00;0.00;;;;;;;;;;5014664;28;20045;-88
2022/08/17 08:05:08;;;;;;;0.05;0.05;;;;;;;;;;5000620;28;20106;-88
2022/08/17 08:07:54;;;;;;;0.10;0.10;;;;;;;;;;5012864;28;20045;-87
2022/08/17 08:10:26;;;;;;;0.10;0.10;;;;;;;;;;5012486;28;20065;-88
2022/08/17 08:13:09;;;;;;;0.00;0.00;;;;;;;;;;5000159;28;20037;-89
2022/08/17 08:15:47;;;;;;;0.10;0.10;;;;;;;;;;4995250;28;20034;-91
2022/08/17 08:18:22;;;;;;;0.10;0.10;;;;;;;;;;5016720;28;20049;-88
2022/08/17 08:21:09;;;;;;;0.00;0.00;;;;;;;;;;4994116;28;20093;-88
2022/08/17 08:23:45;;;;;;;0.05;0.05;;;;;;;;;;4996059;28;20049;-88
2022/08/17 08:26:22;;;;;;;0.00;0.00;;;;;;;;;;4988492;28;20073;-89
2022/08/17 08:28:59;;;;;;;0.10;0.10;;;;;;;;;;5012646;28;20092;-88
2022/08/17 08:31:25;;;;;;;0.00;0.00;;;;;;;;;;5012618;28;20136;-89
2022/08/17 08:34:11;;;;;;;0.00;0.00;;;;;;;;;;5013292;28;20499;-93
2022/08/17 08:36:55;;;;;;;0.10;0.10;;;;;;;;;;4992409;28;20038;-89
2022/08/17 08:39:21;;;;;;;0.20;0.20;;;;;;;;;;5004311;28;20042;-90
2022/08/17 08:42:06;;;;;;;0.10;0.10;;;;;;;;;;4991110;28;20042;-90
2022/08/17 08:44:47;;;;;;;0.10;0.10;;;;;;;;;;4988718;28;20116;-93
2022/08/17 08:47:29;;;;;;;0.10;0.10;;;;;;;;;;4986132;28;20061;-87
2022/08/17 08:50:10;;;;;;;0.08;0.08;;;;;;;;;;4984823;28;20070;-90
2022/08/17 08:52:47;;;;;;;0.10;0.10;;;;;;;;;;5011602;28;20034;-90
2022/08/17 08:55:34;;;;;;;0.22;0.22;;;;;;;;;;4999168;28;20088;-91
2022/08/17 08:58:03;;;;;;;0.00;0.00;;;;;;;;;;4987937;28;20042;-88
2022/08/17 09:00:34;;;;;;;0.10;0.10;;;;;;;;;;5003330;28;20049;-88
2022/08/17 09:03:03;;;;;;;0.00;0.00;;;;;;;;;;4992270;28;20049;-85
2022/08/17 09:05:38;;;;;;;0.10;0.10;;;;;;;;;;4994148;28;20053;-87
2022/08/17 09:08:22;;;;;;;0.00;0.00;;;;;;;;;;5006408;28;20042;-88
2022/08/17 09:11:15;;;;;;;0.00;0.00;;;;;;;;;;4992345;28;20054;-88
2022/08/17 09:13:49;;;;;;;0.08;0.08;;;;;;;;;;4985474;28;20312;-89
2022/08/17 09:16:19;;;;;;;0.00;0.00;;;;;;;;;;5008697;28;20045;-94
2022/08/17 09:18:53;;;;;;;0.00;0.00;;;;;;;;;;5018415;28;20027;-92
2022/08/17 09:21:34;;;;;;;0.00;0.00;;;;;;;;;;4994957;28;20045;-87
2022/08/17 09:24:05;;;;;;;0.10;0.10;;;;;;;;;;5007470;28;20054;-89
2022/08/17 09:26:58;;;;;;;0.10;0.10;;;;;;;;;;4992311;28;20435;-90
2022/08/17 09:29:26;;;;;;;0.00;0.00;;;;;;;;;;4998234;28;20400;-89
2022/08/17 09:32:02;;;;;;;0.00;0.00;;;;;;;;;;5009719;28;20038;-93
2022/08/17 09:34:43;;;;;;;0.00;0.00;;;;;;;;;;4997927;28;20101;-88
2022/08/17 09:37:15;;;;;;;0.10;0.10;;;;;;;;;;4993690;28;20045;-89
2022/08/17 09:39:45;;;;;;;0.00;0.00;;;;;;;;;;5005476;28;20037;-87
2022/08/17 09:42:24;;;;;;;0.03;0.03;;;;;;;;;;5002795;28;20045;-89
2022/08/17 09:44:50;;;;;;;0.10;0.10;;;;;;;;;;5003533;28;20044;-89
2022/08/17 09:47:29;;;;;;;0.00;0.00;;;;;;;;;;4999775;28;20041;-88
2022/08/17 09:50:05;;;;;;;0.10;0.10;;;;;;;;;;4997913;28;20499;-89
2022/08/17 09:52:33;;;;;;;0.10;0.10;;;;;;;;;;4995123;28;20176;-91
2022/08/17 09:55:00;;;;;;;0.10;0.10;;;;;;;;;;4993689;28;20069;-88
2022/08/17 09:57:46;;;;;;;0.10;0.10;;;;;;;;;;4997797;28;20048;-89
2022/08/17 10:03:27;;;;;;;0.00;0.00;;;;;;;;;;5009368;28;20072;-89
2022/08/17 10:06:12;;;;;;;0.05;0.05;;;;;;;;;;5013562;28;20053;-88
2022/08/17 10:08:38;;;;;;;0.00;0.00;;;;;;;;;;5001733;28;20508;-87
2022/08/17 10:12:14;;;;;;;0.03;0.03;;;;;;;;;;4998321;28;20053;-87
2022/08/17 10:14:13;;;;;;;0.10;0.10;;;;;;;;;;5012671;28;20045;-87
2022/08/17 10:16:59;;;;;;;0.00;0.00;;;;;;;;;;4983483;28;20042;-87
2022/08/17 10:19:38;;;;;;;0.00;0.00;;;;;;;;;;4998004;28;20133;-87
2022/08/17 10:27:41;;;;;;;;;;;;;;;;;;5015793;28;20060;-87
2022/08/17 10:30:09;;;;;;;0.10;0.10;;;;;;;;;;5005223;28;19928;-86
2022/08/17 10:32:45;;;;;;;0.00;0.00;;;;;;;;;;4997618;28;20124;-87
2022/08/17 10:35:24;;;;;;;0.00;0.00;;;;;;;;;;4996123;28;20037;-87
2022/08/17 10:37:58;;;;;;;0.00;0.00;;;;;;;;;;4995308;28;20042;-86
2022/08/17 10:43:52;;;;;;;0.10;0.10;;;;;;;;;;5022914;28;20036;-87
2022/08/17 10:46:23;;;;;;;0.08;0.08;;;;;;;;;;5005573;28;20049;-87
2022/08/17 10:49:09;;;;;;;0.00;0.00;;;;;;;;;;5009409;28;20038;-86
2022/08/17 10:51:37;;;;;;;0.10;0.10;;;;;;;;;;4998091;28;20038;-87
2022/08/17 10:54:23;;;;;;;0.00;0.00;;;;;;;;;;4995635;28;20044;-86
2022/08/17 10:56:50;;;;;;;0.00;0.00;;;;;;;;;;5000999;28;20045;-85
2022/08/17 10:59:36;;;;;;;0.10;0.10;;;;;;;;;;4998644;28;20134;-86
2022/08/17 11:02:11;;;;;;;0.00;0.00;;;;;;;;;;4984761;28;20128;-86
2022/08/17 11:04:44;;;;;;;0.00;0.00;;;;;;;;;;4997375;28;20040;-86
2022/08/17 11:07:17;;;;;;;0.10;0.10;;;;;;;;;;5012177;28;20113;-86
2022/08/17 11:10:02;;;;;;;0.10;0.10;;;;;;;;;;4998055;28;20073;-86
2022/08/17 11:12:29;;;;;;;;;;;;;;;;;;5005233;28;20065;-86
2022/08/17 11:15:14;;;;;;;0.10;0.10;;;;;;;;;;4994937;28;19964;-89
2022/08/17 11:17:49;;;;;;;0.00;0.00;;;;;;;;;;5012796;28;20129;-87
2022/08/17 11:20:33;;;;;;;0.00;0.00;;;;;;;;;;5003223;28;20045;-87
2022/08/17 11:23:06;;;;;;;0.00;0.00;;;;;;;;;;5007377;28;20578;-87
2022/08/17 11:25:37;;;;;;;0.10;0.10;;;;;;;;;;5015177;28;20042;-86
2022/08/17 11:28:07;;;;;;;0.10;0.10;;;;;;;;;;5005753;28;20524;-86
2022/08/17 11:30:59;;;;;;;0.10;0.10;;;;;;;;;;4994395;28;20117;-87
2022/08/17 11:33:28;;;;;;;0.00;0.00;;;;;;;;;;4984234;28;20535;-87
2022/08/17 11:36:15;;;;;;;0.00;0.00;;;;;;;;;;5017146;28;20041;-85
2022/08/17 11:38:56;;;;;;;0.00;0.00;;;;;;;;;;5010050;28;20048;-86
2022/08/17 11:41:47;;;;;;;0.00;0.00;;;;;;;;;;5008082;28;20046;-86
2022/08/17 11:44:36;;;;;;;0.00;0.00;;;;;;;;;;5011343;28;20080;-84
2022/08/17 11:53:48;;;;;;;0.08;0.08;;;;;;;;;;5012527;28;20418;-86
2022/08/17 11:56:36;;;;;;;0.00;0.00;;;;;;;;;;5005913;28;20491;-85
2022/08/17 11:59:02;;;;;;;0.00;0.00;;;;;;;;;;5005453;28;20125;-85
2022/08/17 12:01:28;;;;;;;0.00;0.00;;;;;;;;;;4994888;28;20041;-86
2022/08/17 12:04:13;;;;;;;0.08;0.08;;;;;;;;;;4999237;28;20042;-86
2022/08/17 12:06:43;;;;;;;0.00;0.00;;;;;;;;;;5008699;28;20038;-86
2022/08/17 12:09:46;;;;;;;0.10;0.10;;;;;;;;;;4995062;28;20046;-86
2022/08/17 12:12:34;;;;;;;0.00;0.00;;;;;;;;;;5015475;28;20092;-85
2022/08/17 12:15:19;;;;;;;0.00;0.00;;;;;;;;;;4980656;28;20487;-86
2022/08/17 12:17:52;;;;;;;0.00;0.00;;;;;;;;;;4986534;28;20042;-87
2022/08/17 12:20:26;;;;;;;0.00;0.00;;;;;;;;;;4999498;28;20044;-86
2022/08/17 12:23:11;;;;;;;0.05;0.05;;;;;;;;;;4999159;28;20046;-86
2022/08/17 12:25:37;;;;;;;0.13;0.13;;;;;;;;;;4992453;28;20038;-85
2022/08/17 12:28:22;;;;;;;0.05;0.05;;;;;;;;;;5010183;28;20053;-86
2022/08/17 12:30:50;;;;;;;0.00;0.00;;;;;;;;;;4996694;28;20042;-86
2022/08/17 12:33:20;;;;;;;0.10;0.10;;;;;;;;;;4998040;28;20046;-84
2022/08/17 12:35:46;;;;;;;0.00;0.00;;;;;;;;;;4999889;28;20030;-88
2022/08/17 12:38:15;;;;;;;0.00;0.00;;;;;;;;;;4988442;28;20108;-88
2022/08/17 12:44:04;;;;;;;0.00;0.00;;;;;;;;;;5011537;28;20096;-88
2022/08/17 12:46:32;;;;;;;0.00;0.00;;;;;;;;;;4996067;28;20053;-88
2022/08/17 12:49:18;;;;;;;0.00;0.00;;;;;;;;;;5006510;28;20061;-85
2022/08/17 12:51:45;;;;;;;0.00;0.00;;;;;;;;;;5021933;28;20519;-86
2022/08/17 12:57:40;;;;;;;0.08;0.08;;;;;;;;;;5009199;28;20088;-86
2022/08/17 13:00:15;;;;;;;0.00;0.00;;;;;;;;;;4989145;28;20042;-86
2022/08/17 13:02:44;;;;;;;0.00;0.00;;;;;;;;;;5004404;28;20060;-87
2022/08/17 13:05:26;;;;;;;0.00;0.00;;;;;;;;;;5003227;28;20042;-86
2022/08/17 13:07:53;;;;;;;0.10;0.10;;;;;;;;;;4995302;28;20057;-89
2022/08/17 13:10:50;;;;;;;0.10;0.10;;;;;;;;;;4998812;28;20042;-86
2022/08/17 13:13:22;;;;;;;0.05;0.05;;;;;;;;;;5006350;28;20045;-87
2022/08/17 13:15:52;;;;;;;0.00;0.00;;;;;;;;;;5000043;28;20061;-87
2022/08/17 13:18:31;;;;;;;0.00;0.00;;;;;;;;;;5006772;28;20034;-85
2022/08/17 13:20:58;;;;;;;0.03;0.03;;;;;;;;;;4994510;28;20567;-86
2022/08/17 13:23:28;;;;;;;0.00;0.00;;;;;;;;;;5004519;28;20197;-86
2022/08/17 13:26:00;;;;;;;0.05;0.05;;;;;;;;;;4989396;28;20077;-87
2022/08/17 13:28:27;;;;;;;0.00;0.00;;;;;;;;;;4990723;28;20042;-88
2022/08/17 13:31:19;;;;;;;0.10;0.10;;;;;;;;;;4988678;28;20053;-86
2022/08/17 13:33:45;;;;;;;0.00;0.00;;;;;;;;;;4994414;28;20069;-85
2022/08/17 13:36:29;;;;;;;0.00;0.00;;;;;;;;;;5012475;28;20120;-83
2022/08/17 13:39:07;;;;;;;0.00;0.00;;;;;;;;;;5011369;28;20065;-84
2022/08/17 13:41:37;;;;;;;0.05;0.05;;;;;;;;;;5000120;28;20026;-84
2022/08/17 13:44:35;;;;;;;0.00;0.00;;;;;;;;;;5003735;28;20455;-85
2022/08/17 13:47:03;;;;;;;0.00;0.00;;;;;;;;;;4992912;28;20050;-84
2022/08/17 13:49:30;;;;;;;0.00;0.00;;;;;;;;;;4999558;28;20113;-85
2022/08/17 13:51:56;;;;;;;0.00;0.00;;;;;;;;;;5008630;28;20034;-86
2022/08/17 13:54:24;;;;;;;0.08;0.08;;;;;;;;;;4996766;28;20038;-85
2022/08/17 13:56:50;;;;;;;0.08;0.08;;;;;;;;;;4998599;28;20041;-89
2022/08/17 13:59:38;;;;;;;0.00;0.00;;;;;;;;;;4997326;28;20053;-85
2022/08/17 14:02:27;;;;;;;0.10;0.10;;;;;;;;;;5017423;28;20514;-87
2022/08/17 14:05:04;;;;;;;1.25;0.75;;;;;;;;;;4999693;28;20124;-86
2022/08/17 14:07:32;;;;;;;0.00;0.00;;;;;;;;;;5002824;28;20053;-86
2022/08/17 14:10:10;;;;;;;0.00;0.00;;;;;;;;;;5014648;28;20049;-87
2022/08/17 14:12:38;;;;;;;0.03;0.03;;;;;;;;;;4997142;28;20049;-88
2022/08/17 14:15:19;;;;;;;0.03;0.03;;;;;;;;;;5006547;28;20042;-87
2022/08/17 14:17:47;;;;;;;0.00;0.00;;;;;;;;;;4997367;28;20407;-87
2022/08/17 14:20:14;;;;;;;0.00;0.00;;;;;;;;;;5003531;28;20077;-87
2022/08/17 14:22:44;;;;;;;0.10;0.10;;;;;;;;;;4989917;28;20113;-87
2022/08/17 14:25:10;;;;;;;0.10;0.10;;;;;;;;;;5001459;28;20057;-85
2022/08/17 14:27:52;;;;;;;0.10;0.10;;;;;;;;;;4996858;28;20103;-86
2022/08/17 14:30:19;;;;;;;0.00;0.00;;;;;;;;;;5000520;28;20070;-83
2022/08/17 14:32:47;;;;;;;0.00;0.00;;;;;;;;;;4998044;28;20457;-85
2022/08/17 14:35:21;;;;;;;0.08;0.08;;;;;;;;;;5001918;28;20033;-84
2022/08/17 14:37:47;;;;;;;0.10;0.10;;;;;;;;;;4995817;28;20052;-84
2022/08/17 14:40:19;;;;;;;0.03;0.03;;;;;;;;;;5012439;28;20073;-84
2022/08/17 14:42:58;;;;;;;0.00;0.00;;;;;;;;;;4998712;28;20045;-86
2022/08/17 14:45:29;;;;;;;0.00;0.00;;;;;;;;;;4991824;28;20042;-86
2022/08/17 14:47:55;;;;;;;0.00;0.00;;;;;;;;;;5012697;28;20056;-85
2022/08/17 14:50:22;;;;;;;0.10;0.10;;;;;;;;;;4994877;28;20042;-85
2022/08/17 14:52:55;;;;;;;0.10;0.10;;;;;;;;;;5010058;28;20216;-85
2022/08/17 14:55:21;;;;;;;0.10;0.10;;;;;;;;;;5010140;28;20038;-85
2022/08/17 14:57:47;;;;;;;0.08;0.08;;;;;;;;;;5001421;28;20042;-86
2022/08/17 15:00:15;;;;;;;0.10;0.10;;;;;;;;;;4999500;28;20044;-89
2022/08/17 15:02:52;;;;;;;0.00;0.00;;;;;;;;;;5012243;28;20826;-87
2022/08/17 15:05:30;;;;;;;0.03;0.03;;;;;;;;;;5001648;28;20136;-86
2022/08/17 15:07:56;;;;;;;0.00;0.00;;;;;;;;;;4995200;28;20057;-87
2022/08/17 15:10:23;;;;;;;0.00;0.00;;;;;;;;;;5002953;28;20132;-87
2022/08/17 15:12:49;;;;;;;0.03;0.03;;;;;;;;;;5001796;28;20041;-86
2022/08/17 15:15:16;;;;;;;0.00;0.00;;;;;;;;;;4992297;28;20126;-87
2022/08/17 15:17:43;;;;;;;0.00;0.00;;;;;;;;;;5018622;28;20072;-86
2022/08/17 15:20:10;;;;;;;0.10;0.10;;;;;;;;;;5013346;28;20458;-88
2022/08/17 15:22:36;;;;;;;0.00;0.00;;;;;;;;;;5000127;28;20069;-86
2022/08/17 15:25:06;;;;;;;0.00;0.00;;;;;;;;;;4998656;28;20108;-86
2022/08/17 15:30:55;;;;;;;0.10;0.10;;;;;;;;;;5011567;28;20070;-86
2022/08/17 15:33:23;;;;;;;0.10;0.10;;;;;;;;;;5010202;28;20173;-86
2022/08/17 15:35:52;;;;;;;0.05;0.05;;;;;;;;;;4999339;28;20060;-85
2022/08/17 15:38:18;;;;;;;0.05;0.05;;;;;;;;;;4998948;28;20075;-85
2022/08/17 15:40:46;;;;;;;0.05;0.05;;;;;;;;;;5000248;28;20054;-85
2022/08/17 15:43:17;;;;;;;0.08;0.08;;;;;;;;;;4995048;28;20037;-85
2022/08/17 15:45:48;;;;;;;0.10;0.10;;;;;;;;;;5012847;28;20053;-85
2022/08/17 15:48:14;;;;;;;0.10;0.10;;;;;;;;;;5005753;28;20121;-85
2022/08/17 15:50:44;;;;;;;0.10;0.10;;;;;;;;;;4996560;28;20123;-84
2022/08/17 15:53:11;;;;;;;0.00;0.00;;;;;;;;;;5013460;28;20088;-85
2022/08/17 15:55:38;;;;;;;0.00;0.00;;;;;;;;;;5015934;28;20070;-85
2022/08/17 15:58:05;;;;;;;0.00;0.00;;;;;;;;;;5007151;28;20046;-86